Time;durP1;ratioP1;P1;durP2;ratioP2;P2;SDS_P1;SDS_P2;PMS_P1;PMS_P2;Temp;Humidity;BMP_temperature;BMP_pressure;BME280_temperature;BME280_humidity;BME280_pressure;Samples;Min_cycle;Max_cycle;Signal;HPM_P1;HPM_P2
2022/09/09 00:01:20;;;;;;;6.10;1.80;;;12.30;99.90;;;;;;5028455;28;20668;-64
2022/09/09 00:04:05;;;;;;;7.30;1.80;;;12.20;99.90;;;;;;5030145;28;20038;-63
2022/09/09 00:06:44;;;;;;;5.40;1.48;;;12.30;99.90;;;;;;5025539;28;20501;-65
2022/09/09 00:09:15;;;;;;;10.35;1.98;;;12.30;99.90;;;;;;5028353;28;20022;-65
2022/09/09 00:11:47;;;;;;;4.13;1.77;;;12.20;99.90;;;;;;5034265;28;20648;-63
2022/09/09 00:14:50;;;;;;;5.22;1.90;;;12.10;99.90;;;;;;5029787;28;20053;-65
2022/09/09 00:17:26;;;;;;;5.00;1.77;;;12.00;99.90;;;;;;5032008;28;20030;-65
2022/09/09 00:20:01;;;;;;;7.00;1.65;;;12.00;99.90;;;;;;5030890;28;20390;-64
2022/09/09 00:22:31;;;;;;;3.08;1.83;;;12.00;99.90;;;;;;5030412;28;20049;-65
2022/09/09 00:25:10;;;;;;;5.90;1.85;;;12.10;99.90;;;;;;5029722;28;20026;-65
2022/09/09 00:27:50;;;;;;;6.72;1.70;;;12.00;99.90;;;;;;5029953;28;20041;-63
2022/09/09 00:30:22;;;;;;;6.38;2.10;;;12.00;99.90;;;;;;5030183;28;20463;-64
2022/09/09 00:32:57;;;;;;;7.15;2.03;;;12.00;99.90;;;;;;5030701;28;20533;-66
2022/09/09 00:35:33;;;;;;;3.53;1.90;;;12.10;99.90;;;;;;5027633;28;20446;-69
2022/09/09 00:38:10;;;;;;;8.15;2.08;;;12.10;99.90;;;;;;5030365;28;20026;-65
2022/09/09 00:40:49;;;;;;;5.80;2.15;;;12.10;99.90;;;;;;5027724;28;20082;-63
2022/09/09 00:43:36;;;;;;;7.30;2.35;;;12.10;99.90;;;;;;5028840;28;20061;-64
2022/09/09 00:46:41;;;;;;;5.55;2.00;;;12.10;99.90;;;;;;5011703;28;20084;-65
2022/09/09 00:49:46;;;;;;;2.78;1.73;;;12.20;99.90;;;;;;5027429;28;20432;-67
2022/09/09 00:52:27;;;;;;;3.47;1.98;;;12.20;99.90;;;;;;5025993;28;20045;-66
2022/09/09 00:55:08;;;;;;;3.08;2.00;;;12.20;99.90;;;;;;5026674;28;20091;-65
2022/09/09 00:57:35;;;;;;;4.03;2.22;;;12.10;99.90;;;;;;5021622;28;20179;-65
2022/09/09 01:00:39;;;;;;;5.22;2.17;;;12.00;99.90;;;;;;5028016;28;20128;-65
2022/09/09 01:03:37;;;;;;;6.38;1.67;;;12.00;99.90;;;;;;5028746;28;20038;-65
2022/09/09 01:06:05;;;;;;;4.22;1.50;;;12.00;99.90;;;;;;5028981;28;20041;-63
2022/09/09 01:08:52;;;;;;;3.53;1.60;;;11.90;99.90;;;;;;5026191;28;20036;-65
2022/09/09 01:11:31;;;;;;;3.85;1.60;;;11.90;99.90;;;;;;5029981;28;20045;-65
2022/09/09 01:14:09;;;;;;;2.90;1.50;;;11.90;99.90;;;;;;5028957;28;20036;-66
2022/09/09 01:16:36;;;;;;;4.38;1.88;;;11.90;99.90;;;;;;5028391;28;20033;-64
2022/09/09 01:19:02;;;;;;;6.93;2.13;;;11.80;99.90;;;;;;5028872;28;20146;-64
2022/09/09 01:22:03;;;;;;;4.53;1.90;;;11.90;99.90;;;;;;5028750;28;20100;-64
2022/09/09 01:24:45;;;;;;;3.22;1.85;;;11.80;99.90;;;;;;5021910;28;20041;-64
2022/09/09 01:27:11;;;;;;;2.60;1.50;;;11.90;99.90;;;;;;5029585;28;20100;-65
2022/09/09 01:29:37;;;;;;;3.63;1.48;;;11.90;99.90;;;;;;5029051;28;20072;-68
2022/09/09 01:32:41;;;;;;;6.97;1.75;;;11.90;99.90;;;;;;5026353;28;20068;-70
2022/09/09 01:35:28;;;;;;;2.65;1.45;;;12.00;99.90;;;;;;5027721;28;20036;-65
2022/09/09 01:37:54;;;;;;;4.38;1.70;;;12.10;99.90;;;;;;5023219;28;20045;-64
2022/09/09 01:40:20;;;;;;;4.72;1.45;;;12.10;99.90;;;;;;5024932;28;20037;-65
2022/09/09 01:42:46;;;;;;;4.70;1.65;;;12.10;99.90;;;;;;5026732;28;20021;-65
2022/09/09 01:45:11;;;;;;;3.22;1.75;;;12.10;99.90;;;;;;5029454;28;20546;-64
2022/09/09 01:47:37;;;;;;;4.28;1.85;;;12.00;99.90;;;;;;5027776;28;20480;-67
2022/09/09 01:50:03;;;;;;;6.18;1.55;;;12.10;99.90;;;;;;5028552;28;20030;-68
2022/09/09 01:52:33;;;;;;;7.20;1.70;;;12.10;99.90;;;;;;5027034;28;20045;-64
2022/09/09 01:54:59;;;;;;;3.50;1.70;;;12.10;99.90;;;;;;5029786;28;20096;-64
2022/09/09 01:57:29;;;;;;;4.25;1.60;;;12.10;99.90;;;;;;5029314;28;20502;-69
2022/09/09 02:00:14;;;;;;;4.10;1.70;;;12.10;99.90;;;;;;5030136;28;20103;-66
2022/09/09 02:03:24;;;;;;;4.43;1.80;;;12.10;99.90;;;;;;5028823;28;20478;-65
2022/09/09 02:06:03;;;;;;;3.58;1.60;;;12.10;99.90;;;;;;5004249;28;20064;-65
2022/09/09 02:08:54;;;;;;;4.13;2.33;;;12.00;99.90;;;;;;5020384;28;20549;-70
2022/09/09 02:11:23;;;;;;;4.43;2.00;;;11.90;99.90;;;;;;5022164;28;20025;-65
2022/09/09 02:13:52;;;;;;;4.93;1.85;;;11.80;99.90;;;;;;5026316;28;20032;-65
2022/09/09 02:16:34;;;;;;;6.07;2.20;;;11.80;99.90;;;;;;5027963;28;20446;-66
2022/09/09 02:19:13;;;;;;;3.67;1.75;;;11.80;99.90;;;;;;5026520;28;20034;-64
2022/09/09 02:21:40;;;;;;;3.92;1.42;;;11.80;99.90;;;;;;5026580;28;20490;-64
2022/09/09 02:24:10;;;;;;;3.25;1.55;;;11.80;99.90;;;;;;5027560;28;20351;-64
2022/09/09 02:26:40;;;;;;;6.82;1.70;;;11.80;99.90;;;;;;5025224;28;20041;-65
2022/09/09 02:29:11;;;;;;;7.20;2.15;;;11.80;99.90;;;;;;5028383;28;20044;-64
2022/09/09 02:31:38;;;;;;;6.95;2.10;;;11.70;99.90;;;;;;5028416;28;20099;-64
2022/09/09 02:34:06;;;;;;;7.35;1.73;;;11.70;99.90;;;;;;5029206;28;20037;-65
2022/09/09 02:36:35;;;;;;;12.13;2.08;;;11.70;99.90;;;;;;5036612;28;20059;-64
2022/09/09 02:39:01;;;;;;;3.17;1.80;;;11.60;99.90;;;;;;5026463;28;20043;-68
2022/09/09 02:41:32;;;;;;;3.10;1.92;;;11.60;99.90;;;;;;5027172;28;20485;-68
2022/09/09 02:43:58;;;;;;;;;;;11.60;99.90;;;;;;5028051;28;20716;-63
2022/09/09 02:46:39;;;;;;;8.27;2.10;;;11.70;99.90;;;;;;5024516;28;19972;-63
2022/09/09 02:49:53;;;;;;;5.47;1.90;;;11.60;99.90;;;;;;5027061;28;20037;-66
2022/09/09 02:52:27;;;;;;;3.22;1.92;;;11.50;99.90;;;;;;5022966;28;20080;-65
2022/09/09 02:54:59;;;;;;;7.07;2.10;;;11.50;99.90;;;;;;5026927;28;20494;-65
2022/09/09 02:57:31;;;;;;;3.63;1.67;;;11.50;99.90;;;;;;5018575;28;20030;-64
2022/09/09 02:59:58;;;;;;;8.48;2.00;;;11.50;99.90;;;;;;5021251;28;20037;-65
2022/09/09 03:02:25;;;;;;;4.35;1.65;;;11.40;99.90;;;;;;5028191;28;20064;-63
2022/09/09 03:04:51;;;;;;;5.78;2.10;;;11.40;99.90;;;;;;5026574;28;20033;-65
2022/09/09 03:07:18;;;;;;;7.28;2.13;;;11.50;99.90;;;;;;5028147;28;20049;-67
2022/09/09 03:09:44;;;;;;;9.25;1.80;;;11.50;99.90;;;;;;5026668;28;20057;-63
2022/09/09 03:12:11;;;;;;;9.13;2.13;;;11.50;99.90;;;;;;5027143;28;20843;-65
2022/09/09 03:14:37;;;;;;;6.57;2.25;;;11.60;99.90;;;;;;5026178;28;20470;-64
2022/09/09 03:17:04;;;;;;;4.10;2.13;;;11.60;99.90;;;;;;5025203;28;20033;-66
2022/09/09 03:19:31;;;;;;;7.10;2.47;;;11.60;99.90;;;;;;5023558;28;20121;-71
2022/09/09 03:21:57;;;;;;;7.43;1.77;;;11.70;99.90;;;;;;5036375;28;20140;-64
2022/09/09 03:24:24;;;;;;;4.35;2.00;;;11.60;99.90;;;;;;5028999;28;20033;-66
2022/09/09 03:26:50;;;;;;;3.30;1.83;;;11.60;99.90;;;;;;5025014;28;20068;-63
2022/09/09 03:29:17;;;;;;;4.88;2.00;;;11.50;99.90;;;;;;5032891;28;20061;-65
2022/09/09 03:31:43;;;;;;;5.95;1.70;;;11.40;99.90;;;;;;5033204;28;20546;-65
2022/09/09 03:34:08;;;;;;;3.90;1.58;;;11.40;99.90;;;;;;5032400;28;20406;-65
2022/09/09 03:36:34;;;;;;;3.78;2.13;;;11.40;99.90;;;;;;5031658;28;20029;-69
2022/09/09 03:39:00;;;;;;;5.55;1.95;;;11.40;99.90;;;;;;5032468;28;20033;-66
2022/09/09 03:41:27;;;;;;;6.35;1.92;;;11.40;99.90;;;;;;5031557;28;20021;-63
2022/09/09 03:43:53;;;;;;;6.45;1.90;;;11.30;99.90;;;;;;5031586;28;20021;-64
2022/09/09 03:46:24;;;;;;;2.75;1.88;;;11.30;99.90;;;;;;5032508;28;20049;-64
2022/09/09 03:48:49;;;;;;;7.60;1.88;;;11.40;99.90;;;;;;5031685;28;20026;-63
2022/09/09 03:51:15;;;;;;;5.65;1.77;;;11.40;99.90;;;;;;5032452;28;20087;-66
2022/09/09 03:53:42;;;;;;;3.67;2.00;;;11.30;99.90;;;;;;5031532;28;20116;-64
2022/09/09 03:56:09;;;;;;;5.35;2.00;;;11.30;99.90;;;;;;5031398;28;20086;-67
2022/09/09 03:58:36;;;;;;;5.53;1.90;;;11.30;99.90;;;;;;5031452;28;20530;-67
2022/09/09 04:01:16;;;;;;;4.55;2.30;;;11.20;99.90;;;;;;5031785;28;20465;-66
2022/09/09 04:03:42;;;;;;;5.68;1.80;;;11.20;99.90;;;;;;5031508;28;20037;-65
2022/09/09 04:06:11;;;;;;;4.28;1.90;;;11.20;99.90;;;;;;5032007;28;20258;-65
2022/09/09 04:08:38;;;;;;;4.32;2.25;;;11.20;99.90;;;;;;5026538;28;20029;-66
2022/09/09 04:11:06;;;;;;;4.22;2.45;;;11.20;99.90;;;;;;5027591;28;20079;-64
2022/09/09 04:13:37;;;;;;;7.10;2.90;;;11.20;99.90;;;;;;5031090;28;20041;-66
2022/09/09 04:16:03;;;;;;;4.28;2.42;;;11.30;99.90;;;;;;5030089;28;20156;-65
2022/09/09 04:18:29;;;;;;;5.28;1.95;;;11.50;99.90;;;;;;5012093;28;20045;-65
2022/09/09 04:20:57;;;;;;;10.63;2.60;;;11.60;99.90;;;;;;5011565;28;20047;-68
2022/09/09 04:23:24;;;;;;;4.78;2.55;;;11.70;99.90;;;;;;5029513;28;20045;-65
2022/09/09 04:25:52;;;;;;;7.28;3.30;;;11.80;99.90;;;;;;5027417;28;20149;-64
2022/09/09 04:28:20;;;;;;;4.53;2.30;;;11.80;99.90;;;;;;5031524;28;20236;-65
2022/09/09 04:30:47;;;;;;;4.53;2.10;;;11.80;99.90;;;;;;5028607;28;20053;-63
2022/09/09 04:33:13;;;;;;;8.90;2.35;;;11.80;99.90;;;;;;5031292;28;20030;-64
2022/09/09 04:35:44;;;;;;;4.35;2.17;;;11.70;99.90;;;;;;5028839;28;20037;-65
2022/09/09 04:38:09;;;;;;;4.68;1.92;;;11.70;99.90;;;;;;5027742;28;20044;-65
2022/09/09 04:40:36;;;;;;;4.95;1.77;;;11.70;99.90;;;;;;5030323;28;20033;-70
2022/09/09 04:43:05;;;;;;;4.10;1.60;;;11.70;99.90;;;;;;5030963;28;20035;-64
2022/09/09 04:45:31;;;;;;;8.27;1.95;;;11.80;99.90;;;;;;5031471;28;20026;-65
2022/09/09 04:47:57;;;;;;;3.63;1.58;;;11.80;99.90;;;;;;5030597;28;20589;-66
2022/09/09 04:50:23;;;;;;;4.75;1.60;;;11.80;99.90;;;;;;5031385;28;20810;-65
2022/09/09 04:52:49;;;;;;;4.82;2.00;;;11.80;99.90;;;;;;5022698;28;20057;-65
2022/09/09 04:55:14;;;;;;;6.20;1.70;;;11.80;99.90;;;;;;5014898;28;20398;-65
2022/09/09 04:57:40;;;;;;;9.18;2.35;;;11.90;99.90;;;;;;5030506;28;20470;-67
2022/09/09 05:00:07;;;;;;;2.53;1.67;;;11.90;99.90;;;;;;5031066;28;20375;-64
2022/09/09 05:02:33;;;;;;;5.07;1.83;;;12.00;99.90;;;;;;5030985;28;20503;-65
2022/09/09 05:04:58;;;;;;;5.75;1.80;;;12.10;99.90;;;;;;5030175;28;20053;-64
2022/09/09 05:07:27;;;;;;;3.58;1.52;;;12.20;99.90;;;;;;5029948;28;20051;-66
2022/09/09 05:09:53;;;;;;;6.65;2.67;;;12.20;99.90;;;;;;5026908;28;20112;-65
2022/09/09 05:12:19;;;;;;;4.68;2.10;;;12.10;99.90;;;;;;5031798;28;20065;-65
2022/09/09 05:14:44;;;;;;;8.25;2.15;;;12.00;99.90;;;;;;5031082;28;20057;-65
2022/09/09 05:17:10;;;;;;;5.57;1.67;;;11.90;99.90;;;;;;5030800;28;20037;-66
2022/09/09 05:19:36;;;;;;;3.85;1.70;;;11.90;99.90;;;;;;5030629;28;20024;-69
2022/09/09 05:22:02;;;;;;;8.02;1.90;;;11.80;99.90;;;;;;5026494;28;20029;-66
2022/09/09 05:24:29;;;;;;;5.88;2.08;;;11.80;99.90;;;;;;5029507;28;20140;-67
2022/09/09 05:26:57;;;;;;;4.20;2.20;;;11.90;99.90;;;;;;5029336;28;20048;-65
2022/09/09 05:29:23;;;;;;;6.70;2.00;;;11.90;99.90;;;;;;5029106;28;20140;-66
2022/09/09 05:31:49;;;;;;;2.28;1.80;;;11.90;99.90;;;;;;5028567;28;20537;-64
2022/09/09 05:34:14;;;;;;;4.63;1.75;;;11.80;99.90;;;;;;5030588;28;20642;-65
2022/09/09 05:36:40;;;;;;;4.72;2.20;;;11.80;99.90;;;;;;5027679;28;20044;-69
2022/09/09 05:39:05;;;;;;;6.15;2.50;;;11.80;99.90;;;;;;5027183;28;20033;-67
2022/09/09 05:41:31;;;;;;;5.50;2.65;;;11.80;99.90;;;;;;5028334;28;20037;-67
2022/09/09 05:43:58;;;;;;;4.75;2.00;;;11.80;99.90;;;;;;5028517;28;20033;-67
2022/09/09 05:46:25;;;;;;;13.38;2.22;;;11.80;99.90;;;;;;5028732;28;20117;-66
2022/09/09 05:48:52;;;;;;;6.30;2.33;;;11.90;99.90;;;;;;5026439;28;20071;-66
2022/09/09 05:51:23;;;;;;;5.85;2.10;;;12.20;99.90;;;;;;5029499;28;20029;-67
2022/09/09 05:53:51;;;;;;;5.70;1.88;;;12.50;99.90;;;;;;5029241;28;20033;-66
2022/09/09 05:56:23;;;;;;;7.00;2.50;;;12.70;99.90;;;;;;5029932;28;20091;-64
2022/09/09 05:58:49;;;;;;;4.43;1.73;;;13.00;99.90;;;;;;5029229;28;20032;-65
2022/09/09 06:01:24;;;;;;;7.07;2.20;;;13.10;99.90;;;;;;5030120;28;20029;-66
2022/09/09 06:03:51;;;;;;;4.18;1.98;;;13.30;99.90;;;;;;5028442;28;20083;-66
2022/09/09 06:06:22;;;;;;;4.47;1.92;;;13.40;99.90;;;;;;5028921;28;20045;-68
2022/09/09 06:08:50;;;;;;;;;;;13.50;99.90;;;;;;5029641;28;20033;-65
2022/09/09 06:11:21;;;;;;;9.18;1.90;;;13.60;99.90;;;;;;5029540;28;20342;-64
2022/09/09 06:13:50;;;;;;;4.20;2.03;;;13.60;99.90;;;;;;5029020;28;20075;-68
2022/09/09 06:16:18;;;;;;;5.00;2.00;;;13.60;99.90;;;;;;5029782;28;20359;-65
2022/09/09 06:18:44;;;;;;;6.32;2.00;;;13.60;99.90;;;;;;5028926;28;20026;-71
2022/09/09 06:21:18;;;;;;;5.95;1.90;;;13.60;99.90;;;;;;5028903;28;20028;-65
2022/09/09 06:23:44;;;;;;;5.95;2.08;;;13.60;99.90;;;;;;5028821;28;20112;-69
2022/09/09 06:26:20;;;;;;;3.72;2.00;;;13.60;99.90;;;;;;5029333;28;20145;-63
2022/09/09 06:28:47;;;;;;;6.15;2.40;;;13.70;99.90;;;;;;5028854;28;20025;-66
2022/09/09 06:31:17;;;;;;;4.57;1.85;;;13.70;99.90;;;;;;5029445;28;20103;-65
2022/09/09 06:33:43;;;;;;;6.97;1.90;;;13.80;99.90;;;;;;5029071;28;20021;-71
2022/09/09 06:36:25;;;;;;;3.28;2.10;;;13.90;99.90;;;;;;5028383;28;20541;-67
2022/09/09 06:38:51;;;;;;;6.50;2.00;;;14.20;99.90;;;;;;5022735;28;20033;-65
2022/09/09 06:41:18;;;;;;;6.82;1.75;;;14.40;99.90;;;;;;5026087;28;20040;-68
2022/09/09 06:43:45;;;;;;;5.75;1.73;;;14.60;99.90;;;;;;5017090;28;20496;-69
2022/09/09 06:46:19;;;;;;;3.47;1.80;;;14.80;99.90;;;;;;5028705;28;20084;-66
2022/09/09 06:48:45;;;;;;;3.45;1.52;;;15.00;99.90;;;;;;5029130;28;20071;-72
2022/09/09 06:51:14;;;;;;;5.25;2.10;;;15.10;99.90;;;;;;5028209;28;20037;-64
2022/09/09 06:53:42;;;;;;;7.22;1.70;;;15.20;99.90;;;;;;5029066;28;20064;-65
2022/09/09 06:56:10;;;;;;;5.03;1.48;;;15.30;99.90;;;;;;5028310;28;20091;-66
2022/09/09 06:58:42;;;;;;;7.22;1.63;;;15.40;99.90;;;;;;5029137;28;20064;-64
2022/09/09 07:01:09;;;;;;;3.67;1.67;;;15.50;99.90;;;;;;5031212;28;20065;-68
2022/09/09 07:03:35;;;;;;;7.57;2.10;;;15.50;99.90;;;;;;5032686;28;20035;-65
2022/09/09 07:06:01;;;;;;;5.32;1.75;;;15.60;99.90;;;;;;5031411;28;20042;-64
2022/09/09 07:08:28;;;;;;;6.00;1.52;;;15.60;99.90;;;;;;5032872;28;20037;-65
2022/09/09 07:10:54;;;;;;;5.60;2.20;;;15.70;99.90;;;;;;5032234;28;20068;-65
2022/09/09 07:13:26;;;;;;;5.63;2.47;;;15.80;99.90;;;;;;5015740;28;20119;-64
2022/09/09 07:15:52;;;;;;;7.85;1.85;;;15.90;99.90;;;;;;5031456;28;20442;-66
2022/09/09 07:18:19;;;;;;;3.70;1.67;;;16.00;99.90;;;;;;5032917;28;20072;-64
2022/09/09 07:20:54;;;;;;;3.80;1.58;;;16.00;99.90;;;;;;5032381;28;20049;-69
2022/09/09 07:23:19;;;;;;;7.43;1.40;;;16.10;99.90;;;;;;5023841;28;20108;-66
2022/09/09 07:25:47;;;;;;;3.70;1.77;;;16.10;99.90;;;;;;5029198;28;20553;-70
2022/09/09 07:28:13;;;;;;;3.95;1.58;;;16.30;99.90;;;;;;5032608;28;20470;-66
2022/09/09 07:30:40;;;;;;;2.38;1.40;;;16.40;99.90;;;;;;5032500;28;20054;-66
2022/09/09 07:33:06;;;;;;;5.85;1.58;;;16.50;99.90;;;;;;5024533;28;20032;-66
2022/09/09 07:35:31;;;;;;;4.80;1.70;;;16.70;99.90;;;;;;5032098;28;20116;-63
2022/09/09 07:37:58;;;;;;;2.83;1.60;;;16.60;99.90;;;;;;5031949;28;20113;-64
2022/09/09 07:40:24;;;;;;;5.35;1.48;;;16.70;99.90;;;;;;5032557;28;20068;-66
2022/09/09 07:42:49;;;;;;;8.70;1.67;;;16.70;99.90;;;;;;5031308;28;20032;-65
2022/09/09 07:45:15;;;;;;;4.32;1.40;;;16.80;99.90;;;;;;5021454;28;20030;-66
2022/09/09 07:47:42;;;;;;;4.03;1.48;;;16.90;99.90;;;;;;5017526;28;20037;-65
2022/09/09 07:50:09;;;;;;;5.15;1.38;;;17.00;99.90;;;;;;5031585;28;20029;-65
2022/09/09 07:52:35;;;;;;;4.43;1.40;;;17.20;99.90;;;;;;5032337;28;20025;-64
2022/09/09 07:55:02;;;;;;;4.43;1.58;;;17.30;99.90;;;;;;5031660;28;20466;-67
2022/09/09 07:57:30;;;;;;;2.35;1.30;;;17.40;99.90;;;;;;5032376;28;20059;-64
2022/09/09 07:59:56;;;;;;;6.35;1.60;;;17.40;99.90;;;;;;5031561;28;20033;-65
2022/09/09 08:02:27;;;;;;;4.32;1.27;;;17.50;99.90;;;;;;5031111;28;20037;-65
2022/09/09 08:04:53;;;;;;;4.65;1.42;;;17.50;99.90;;;;;;5031470;28;20437;-66
2022/09/09 08:07:21;;;;;;;5.07;1.70;;;17.50;99.90;;;;;;5031948;28;20045;-66
2022/09/09 08:09:47;;;;;;;5.40;1.30;;;17.50;99.90;;;;;;5031905;28;20033;-71
2022/09/09 08:12:12;;;;;;;5.93;1.42;;;17.70;99.90;;;;;;5030610;28;20026;-65
2022/09/09 08:14:39;;;;;;;2.22;1.20;;;17.80;99.90;;;;;;5032040;28;20096;-66
2022/09/09 08:17:05;;;;;;;3.25;1.02;;;18.00;99.90;;;;;;5030540;28;20121;-65
2022/09/09 08:19:33;;;;;;;4.57;1.27;;;18.20;99.90;;;;;;5032017;28;20509;-65
2022/09/09 08:22:01;;;;;;;3.97;1.40;;;18.50;99.90;;;;;;5030335;28;20041;-65
2022/09/09 08:24:27;;;;;;;8.63;1.95;;;18.40;99.90;;;;;;5031879;28;20060;-66
2022/09/09 08:26:53;;;;;;;2.88;1.10;;;18.30;99.90;;;;;;5030991;28;20450;-64
2022/09/09 08:29:19;;;;;;;2.50;1.52;;;18.20;99.90;;;;;;5031355;28;20490;-65
2022/09/09 08:31:47;;;;;;;3.60;1.38;;;18.20;99.90;;;;;;5031400;28;20162;-67
2022/09/09 08:34:13;;;;;;;7.07;1.30;;;18.20;99.90;;;;;;5031101;28;20057;-64
2022/09/09 08:36:44;;;;;;;4.53;1.33;;;18.50;99.90;;;;;;5030657;28;20037;-64
2022/09/09 08:39:12;;;;;;;6.05;1.50;;;18.80;99.90;;;;;;5030138;28;20083;-63
2022/09/09 08:42:05;;;;;;;5.75;1.67;;;19.10;99.90;;;;;;5031603;28;20022;-64
2022/09/09 08:44:49;;;;;;;4.35;1.55;;;19.00;99.90;;;;;;5008226;28;20124;-65
2022/09/09 08:47:34;;;;;;;5.68;1.67;;;18.80;99.90;;;;;;5030839;28;20120;-65
2022/09/09 08:50:31;;;;;;;8.52;1.40;;;18.70;99.90;;;;;;5029678;28;20578;-65
2022/09/09 08:53:19;;;;;;;8.73;1.58;;;18.90;99.90;;;;;;5025580;28;20056;-66
2022/09/09 08:56:11;;;;;;;6.68;1.55;;;19.00;99.90;;;;;;5031229;28;20033;-66
2022/09/09 08:58:48;;;;;;;5.78;1.63;;;19.00;99.90;;;;;;5031278;28;20086;-66
2022/09/09 09:01:40;;;;;;;2.58;1.27;;;18.90;99.90;;;;;;5030532;28;20041;-65
2022/09/09 09:04:22;;;;;;;8.10;1.55;;;18.70;99.90;;;;;;5029587;28;20037;-67
2022/09/09 09:07:04;;;;;;;2.72;1.20;;;18.90;99.90;;;;;;5031049;28;20048;-65
2022/09/09 09:10:02;;;;;;;6.13;1.63;;;19.20;99.90;;;;;;5030909;28;20033;-65
2022/09/09 09:12:35;;;;;;;4.28;1.88;;;19.30;99.90;;;;;;5031016;28;20022;-66
2022/09/09 09:15:02;;;;;;;6.25;1.58;;;19.20;99.90;;;;;;5030125;28;20053;-62
2022/09/09 09:17:33;;;;;;;5.15;1.45;;;19.40;99.90;;;;;;5030805;28;20359;-65
2022/09/09 09:19:59;;;;;;;7.72;1.77;;;19.30;99.90;;;;;;5029207;28;20041;-64
2022/09/09 09:22:48;;;;;;;5.72;1.70;;;19.50;99.90;;;;;;5030545;28;20147;-64
2022/09/09 09:25:26;;;;;;;6.35;1.30;;;19.90;99.90;;;;;;5029780;28;20049;-64
2022/09/09 09:28:21;;;;;;;2.45;1.23;;;20.10;99.90;;;;;;5030302;28;20042;-68
2022/09/09 09:30:57;;;;;;;8.52;2.22;;;19.80;99.90;;;;;;5030389;28;20656;-68
2022/09/09 09:33:40;;;;;;;4.57;1.38;;;19.80;99.90;;;;;;5029572;28;20095;-64
2022/09/09 09:36:08;;;;;;;4.55;1.40;;;19.90;99.90;;;;;;5029466;28;20478;-64
2022/09/09 09:38:36;;;;;;;5.65;1.40;;;20.20;99.90;;;;;;5030191;28;20036;-65
2022/09/09 09:41:02;;;;;;;7.85;1.70;;;20.30;99.90;;;;;;5028317;28;20025;-65
2022/09/09 09:43:36;;;;;;;2.47;1.05;;;20.30;99.90;;;;;;5030275;28;20025;-66
2022/09/09 09:46:17;;;;;;;8.27;1.42;;;20.20;99.90;;;;;;5028001;28;20114;-66
2022/09/09 09:48:42;;;;;;;4.03;1.30;;;19.90;99.90;;;;;;5030186;28;20037;-65
2022/09/09 09:51:12;;;;;;;6.30;1.30;;;20.10;99.90;;;;;;5029301;28;20104;-64
2022/09/09 09:53:38;;;;;;;2.38;1.20;;;20.10;99.90;;;;;;5030040;28;20117;-67
2022/09/09 09:56:07;;;;;;;6.90;1.42;;;20.20;99.90;;;;;;5027910;28;20037;-63
2022/09/09 09:58:38;;;;;;;4.05;1.30;;;20.00;99.90;;;;;;5030116;28;20037;-65
2022/09/09 10:01:04;;;;;;;5.28;1.50;;;20.10;99.90;;;;;;5028948;28;20481;-67
2022/09/09 10:03:33;;;;;;;4.47;1.17;;;20.20;99.90;;;;;;5029934;28;20124;-63
2022/09/09 10:05:58;;;;;;;3.22;1.40;;;19.90;99.90;;;;;;5028664;28;20434;-63
2022/09/09 10:08:26;;;;;;;5.22;1.33;;;19.60;99.90;;;;;;5028761;28;20037;-63
2022/09/09 10:11:30;;;;;;;8.23;1.83;;;19.40;99.90;;;;;;5029836;28;20095;-64
2022/09/09 10:14:11;;;;;;;7.43;1.73;;;19.30;99.90;;;;;;5029488;28;20033;-72
2022/09/09 10:17:08;;;;;;;7.47;1.15;;;19.30;99.90;;;;;;5028523;28;20382;-66
2022/09/09 10:19:36;;;;;;;10.45;1.40;;;19.40;99.90;;;;;;5029800;28;20393;-65
2022/09/09 10:22:27;;;;;;;4.80;1.60;;;19.50;99.90;;;;;;5028328;28;20398;-64
2022/09/09 10:25:08;;;;;;;4.13;1.20;;;19.90;99.90;;;;;;5029741;28;20429;-65
2022/09/09 10:27:34;;;;;;;;;;;20.10;99.90;;;;;;5029204;28;20029;-66
2022/09/09 10:30:12;;;;;;;8.75;1.67;;;19.80;99.90;;;;;;5028913;28;19917;-66
2022/09/09 10:32:52;;;;;;;5.30;1.58;;;19.60;99.90;;;;;;5029615;28;20553;-69
2022/09/09 10:35:50;;;;;;;7.97;1.55;;;19.80;99.90;;;;;;5028307;28;20045;-67
2022/09/09 10:38:38;;;;;;;9.35;1.88;;;19.90;99.90;;;;;;5017327;28;20037;-66
2022/09/09 10:41:10;;;;;;;9.40;1.85;;;19.90;99.90;;;;;;5028745;28;20060;-66
2022/09/09 10:43:50;;;;;;;8.10;1.58;;;20.00;99.90;;;;;;5027628;28;20532;-65
2022/09/09 10:46:22;;;;;;;;;;;20.30;99.90;;;;;;5029104;28;20604;-64
2022/09/09 10:48:51;;;;;;;6.20;1.40;;;20.40;99.90;;;;;;5029449;28;19916;-65
2022/09/09 10:51:22;;;;;;;7.45;1.50;;;20.10;99.90;;;;;;5028658;28;20114;-65
2022/09/09 10:54:14;;;;;;;7.28;1.60;;;20.10;99.90;;;;;;5029456;28;20072;-67
2022/09/09 10:56:44;;;;;;;3.72;1.80;;;20.10;99.90;;;;;;5028532;28;20064;-64
2022/09/09 10:59:24;;;;;;;7.27;1.83;;;20.10;99.90;;;;;;5028824;28;20033;-65
2022/09/09 11:01:57;;;;;;;8.65;1.40;;;20.40;99.90;;;;;;5029494;28;20037;-66
2022/09/09 11:04:42;;;;;;;4.05;1.58;;;20.20;99.90;;;;;;5028982;28;20038;-66
2022/09/09 11:07:12;;;;;;;7.22;1.52;;;20.50;99.90;;;;;;5028528;28;20470;-67
2022/09/09 11:09:44;;;;;;;7.07;1.67;;;20.70;99.90;;;;;;5029909;28;20553;-66
2022/09/09 11:12:17;;;;;;;6.88;1.77;;;20.60;99.90;;;;;;5027129;28;20033;-64
2022/09/09 11:14:49;;;;;;;7.15;1.67;;;20.60;99.90;;;;;;5029254;28;20026;-65
2022/09/09 11:17:28;;;;;;;4.60;1.45;;;20.90;99.90;;;;;;5028421;28;20036;-64
2022/09/09 11:19:54;;;;;;;4.50;1.30;;;21.30;99.90;;;;;;5029248;28;20038;-66
2022/09/09 11:23:00;;;;;;;6.20;1.85;;;21.30;99.90;;;;;;5028371;28;20105;-67
2022/09/09 11:25:47;;;;;;;4.25;1.35;;;20.80;99.90;;;;;;5025227;28;20045;-66
2022/09/09 11:28:40;;;;;;;8.35;1.40;;;20.10;99.90;;;;;;5028380;28;20044;-64
2022/09/09 11:31:32;;;;;;;6.22;1.50;;;20.70;99.90;;;;;;5027989;28;20077;-66
2022/09/09 11:34:14;;;;;;;3.35;1.30;;;21.10;99.90;;;;;;5028844;28;20037;-71
2022/09/09 11:36:58;;;;;;;6.93;1.20;;;21.00;99.90;;;;;;5029090;28;20041;-66
2022/09/09 11:39:30;;;;;;;6.35;1.33;;;20.90;99.90;;;;;;5027018;28;20040;-66
2022/09/09 11:42:14;;;;;;;3.47;1.10;;;21.10;99.90;;;;;;5022047;28;20038;-67
2022/09/09 11:44:41;;;;;;;4.20;1.00;;;21.60;99.90;;;;;;5029087;28;20119;-64
2022/09/09 11:47:29;;;;;;;2.42;0.60;;;22.40;99.90;;;;;;5030475;28;20033;-65
2022/09/09 11:50:30;;;;;;;5.43;0.90;;;22.30;99.20;;;;;;5032330;28;20593;-65
2022/09/09 11:53:22;;;;;;;1.63;0.88;;;21.70;99.90;;;;;;5022970;28;20525;-66
2022/09/09 11:56:00;;;;;;;4.13;0.73;;;21.40;99.70;;;;;;5032702;28;20030;-67
2022/09/09 11:58:28;;;;;;;3.85;0.80;;;21.10;99.90;;;;;;5032013;28;20029;-64
2022/09/09 12:00:54;;;;;;;6.75;1.10;;;21.20;99.90;;;;;;5032334;28;20463;-64
2022/09/09 12:03:48;;;;;;;4.28;0.85;;;21.20;99.90;;;;;;5031443;28;20029;-64
2022/09/09 12:06:32;;;;;;;1.92;0.77;;;21.10;99.90;;;;;;5031364;28;20032;-64
2022/09/09 12:09:24;;;;;;;3.58;1.00;;;21.40;98.30;;;;;;5031450;28;20033;-65
2022/09/09 12:11:50;;;;;;;2.60;0.75;;;21.60;99.70;;;;;;5032161;28;20030;-64
2022/09/09 12:14:35;;;;;;;5.20;0.77;;;22.00;98.90;;;;;;5031186;28;20138;-64
2022/09/09 12:17:19;;;;;;;4.88;1.00;;;22.20;98.30;;;;;;5031872;28;20030;-71
2022/09/09 12:19:44;;;;;;;2.65;0.73;;;21.80;98.00;;;;;;5031963;28;20038;-65
2022/09/09 12:22:38;;;;;;;9.20;1.20;;;22.00;99.50;;;;;;5030847;28;20044;-67
2022/09/09 12:25:22;;;;;;;7.32;1.52;;;22.40;98.20;;;;;;5031497;28;20390;-72
2022/09/09 12:28:17;;;;;;;2.80;0.55;;;22.60;98.20;;;;;;5024890;28;20569;-66
2022/09/09 12:31:08;;;;;;;3.47;0.70;;;22.20;97.60;;;;;;5030119;28;20059;-65
2022/09/09 12:33:36;;;;;;;5.53;0.95;;;21.80;96.00;;;;;;5031141;28;20034;-71
2022/09/09 12:36:04;;;;;;;5.30;0.82;;;20.30;99.90;;;;;;5030821;28;20782;-71
2022/09/09 12:38:35;;;;;;;2.90;0.55;;;19.10;99.90;;;;;;5030369;28;20112;-63
2022/09/09 12:41:01;;;;;;;;;;;18.40;99.90;;;;;;5025051;28;20535;-64
2022/09/09 12:43:28;;;;;;;6.00;0.88;;;18.00;99.90;;;;;;5028287;28;19963;-65
2022/09/09 12:46:06;;;;;;;2.33;0.73;;;17.80;99.90;;;;;;5031324;28;20068;-64
2022/09/09 12:48:44;;;;;;;2.08;0.70;;;17.80;99.90;;;;;;5030442;28;20030;-65
2022/09/09 12:51:28;;;;;;;5.55;0.90;;;17.90;99.90;;;;;;5022198;28;20087;-64
2022/09/09 12:53:55;;;;;;;5.78;0.80;;;18.00;99.90;;;;;;5024436;28;20597;-66
2022/09/09 12:56:26;;;;;;;4.20;0.80;;;18.10;99.90;;;;;;5028018;28;20474;-64
2022/09/09 12:58:53;;;;;;;8.20;1.00;;;18.60;99.90;;;;;;5030094;28;20038;-67
2022/09/09 13:01:29;;;;;;;6.18;0.90;;;19.50;99.90;;;;;;5024350;28;20390;-65
2022/09/09 13:03:55;;;;;;;3.40;0.82;;;20.40;99.90;;;;;;5030002;28;20034;-63
2022/09/09 13:06:26;;;;;;;5.40;0.80;;;20.70;99.90;;;;;;5029102;28;20048;-66
2022/09/09 13:08:53;;;;;;;5.45;0.95;;;20.70;99.90;;;;;;5029588;28;20044;-66
2022/09/09 13:11:46;;;;;;;2.63;0.80;;;21.10;99.90;;;;;;5030436;28;20030;-63
2022/09/09 13:14:19;;;;;;;9.38;1.00;;;21.50;99.90;;;;;;5028756;28;20029;-66
2022/09/09 13:17:03;;;;;;;3.35;0.90;;;21.00;99.90;;;;;;5013871;28;20052;-65
2022/09/09 13:19:38;;;;;;;2.67;0.75;;;21.00;99.90;;;;;;5029835;28;20030;-66